sensor_id;sensor_type;location;lat;lon;timestamp;pressure;altitude;pressure_sealevel;temperature;humidity
79791;BME280;69278;52.220;5.172;2023-12-14T00:01:48;101086.06;;;6.90;86.46
79791;BME280;69278;52.220;5.172;2023-12-14T00:04:15;101097.88;;;6.96;86.28
79791;BME280;69278;52.220;5.172;2023-12-14T00:06:41;101106.69;;;6.95;86.10
79791;BME280;69278;52.220;5.172;2023-12-14T00:09:08;101095.44;;;6.93;86.22
79791;BME280;69278;52.220;5.172;2023-12-14T00:11:38;101106.78;;;6.93;86.51
79791;BME280;69278;52.220;5.172;2023-12-14T00:14:05;101109.91;;;6.98;86.81
79791;BME280;69278;52.220;5.172;2023-12-14T00:16:32;101075.69;;;6.76;87.05
79791;BME280;69278;52.220;5.172;2023-12-14T00:18:58;101080.31;;;6.85;86.60
79791;BME280;69278;52.220;5.172;2023-12-14T00:21:25;101124.25;;;7.05;86.31
79791;BME280;69278;52.220;5.172;2023-12-14T00:23:51;101098.72;;;6.84;86.10
79791;BME280;69278;52.220;5.172;2023-12-14T00:26:18;101135.47;;;6.95;86.61
79791;BME280;69278;52.220;5.172;2023-12-14T00:28:44;101116.31;;;6.82;86.46
79791;BME280;69278;52.220;5.172;2023-12-14T00:31:11;101139.22;;;6.91;86.74
79791;BME280;69278;52.220;5.172;2023-12-14T00:33:37;101143.66;;;6.90;87.27
79791;BME280;69278;52.220;5.172;2023-12-14T00:36:04;101146.47;;;6.87;87.14
79791;BME280;69278;52.220;5.172;2023-12-14T00:38:31;101096.13;;;6.58;87.25
79791;BME280;69278;52.220;5.172;2023-12-14T00:40:57;101148.78;;;6.92;87.44
79791;BME280;69278;52.220;5.172;2023-12-14T00:43:24;101164.88;;;6.98;86.92
79791;BME280;69278;52.220;5.172;2023-12-14T00:45:50;101169.41;;;6.96;86.93
79791;BME280;69278;52.220;5.172;2023-12-14T00:48:18;101165.31;;;6.92;86.94
79791;BME280;69278;52.220;5.172;2023-12-14T00:50:45;101182.50;;;6.96;86.79
79791;BME280;69278;52.220;5.172;2023-12-14T00:53:11;101169.91;;;6.89;86.68
79791;BME280;69278;52.220;5.172;2023-12-14T00:55:38;101180.31;;;6.90;86.93
79791;BME280;69278;52.220;5.172;2023-12-14T00:58:04;101191.28;;;6.95;87.14
79791;BME280;69278;52.220;5.172;2023-12-14T01:00:31;101191.38;;;6.94;86.98
79791;BME280;69278;52.220;5.172;2023-12-14T01:02:57;101205.66;;;7.02;86.49
79791;BME280;69278;52.220;5.172;2023-12-14T01:05:24;101178.94;;;6.85;86.23
79791;BME280;69278;52.220;5.172;2023-12-14T01:07:50;101214.84;;;6.95;86.77
79791;BME280;69278;52.220;5.172;2023-12-14T01:10:17;101181.03;;;6.80;86.66
79791;BME280;69278;52.220;5.172;2023-12-14T01:12:43;101220.72;;;6.99;86.72
79791;BME280;69278;52.220;5.172;2023-12-14T01:15:10;101194.63;;;6.85;86.53
79791;BME280;69278;52.220;5.172;2023-12-14T01:17:37;101199.22;;;6.81;86.72
79791;BME280;69278;52.220;5.172;2023-12-14T01:20:08;101229.81;;;6.93;86.49
79791;BME280;69278;52.220;5.172;2023-12-14T01:22:34;101226.47;;;6.91;86.55
79791;BME280;69278;52.220;5.172;2023-12-14T01:25:01;101213.03;;;6.83;86.86
79791;BME280;69278;52.220;5.172;2023-12-14T01:27:28;101240.28;;;6.93;86.59
79791;BME280;69278;52.220;5.172;2023-12-14T01:29:54;101250.75;;;6.93;86.73
79791;BME280;69278;52.220;5.172;2023-12-14T01:32:21;101238.50;;;6.81;86.39
79791;BME280;69278;52.220;5.172;2023-12-14T01:34:47;101245.22;;;6.85;86.18
79791;BME280;69278;52.220;5.172;2023-12-14T01:37:14;101254.94;;;6.83;86.34
79791;BME280;69278;52.220;5.172;2023-12-14T01:39:40;101268.25;;;6.80;86.30
79791;BME280;69278;52.220;5.172;2023-12-14T01:42:07;101270.94;;;6.79;86.66
79791;BME280;69278;52.220;5.172;2023-12-14T01:44:33;101271.25;;;6.74;86.86
79791;BME280;69278;52.220;5.172;2023-12-14T01:47:00;101276.09;;;6.80;86.88
79791;BME280;69278;52.220;5.172;2023-12-14T01:49:26;101277.88;;;6.80;87.01
79791;BME280;69278;52.220;5.172;2023-12-14T01:51:53;101266.22;;;6.71;86.82
79791;BME280;69278;52.220;5.172;2023-12-14T01:54:20;101284.34;;;6.74;86.38
79791;BME280;69278;52.220;5.172;2023-12-14T01:56:46;101288.44;;;6.78;86.88
79791;BME280;69278;52.220;5.172;2023-12-14T01:59:13;101298.69;;;6.81;86.69
79791;BME280;69278;52.220;5.172;2023-12-14T02:01:43;101249.44;;;6.48;86.34
79791;BME280;69278;52.220;5.172;2023-12-14T02:04:10;101309.59;;;6.75;86.40
79791;BME280;69278;52.220;5.172;2023-12-14T02:06:38;101266.50;;;6.54;86.76
79791;BME280;69278;52.220;5.172;2023-12-14T02:09:05;101292.91;;;6.63;86.76
79791;BME280;69278;52.220;5.172;2023-12-14T02:11:31;101301.69;;;6.62;86.63
79791;BME280;69278;52.220;5.172;2023-12-14T02:14:03;101316.34;;;6.65;86.76
79791;BME280;69278;52.220;5.172;2023-12-14T02:16:29;101327.44;;;6.68;87.07
79791;BME280;69278;52.220;5.172;2023-12-14T02:18:58;101328.28;;;6.69;86.95
79791;BME280;69278;52.220;5.172;2023-12-14T02:21:24;101336.06;;;6.71;86.73
79791;BME280;69278;52.220;5.172;2023-12-14T02:23:51;101347.16;;;6.74;86.98
79791;BME280;69278;52.220;5.172;2023-12-14T02:26:17;101322.19;;;6.56;86.81
79791;BME280;69278;52.220;5.172;2023-12-14T02:28:44;101307.16;;;6.45;86.84
79791;BME280;69278;52.220;5.172;2023-12-14T02:31:10;101351.66;;;6.72;86.85
79791;BME280;69278;52.220;5.172;2023-12-14T02:33:37;101369.78;;;6.75;86.48
79791;BME280;69278;52.220;5.172;2023-12-14T02:36:04;101365.47;;;6.74;86.83
79791;BME280;69278;52.220;5.172;2023-12-14T02:38:30;101373.50;;;6.71;86.96
79791;BME280;69278;52.220;5.172;2023-12-14T02:40:57;101379.91;;;6.67;86.95
79791;BME280;69278;52.220;5.172;2023-12-14T02:43:24;101366.97;;;6.51;86.94
79791;BME280;69278;52.220;5.172;2023-12-14T02:45:50;101338.19;;;6.37;87.03
79791;BME280;69278;52.220;5.172;2023-12-14T02:48:17;101379.53;;;6.59;87.25
79791;BME280;69278;52.220;5.172;2023-12-14T02:50:43;101366.50;;;6.45;86.11
79791;BME280;69278;52.220;5.172;2023-12-14T02:53:10;101398.69;;;6.59;85.97
79791;BME280;69278;52.220;5.172;2023-12-14T02:55:36;101391.81;;;6.58;86.23
79791;BME280;69278;52.220;5.172;2023-12-14T02:58:03;101397.84;;;6.59;86.45
79791;BME280;69278;52.220;5.172;2023-12-14T03:00:29;101402.28;;;6.58;85.83
79791;BME280;69278;52.220;5.172;2023-12-14T03:02:56;101404.88;;;6.58;86.07
79791;BME280;69278;52.220;5.172;2023-12-14T03:05:22;101410.19;;;6.57;86.06
79791;BME280;69278;52.220;5.172;2023-12-14T03:07:49;101412.91;;;6.55;86.02
79791;BME280;69278;52.220;5.172;2023-12-14T03:10:16;101406.00;;;6.54;86.12
79791;BME280;69278;52.220;5.172;2023-12-14T03:12:42;101390.44;;;6.39;85.43
79791;BME280;69278;52.220;5.172;2023-12-14T03:15:09;101368.16;;;6.19;85.18
79791;BME280;69278;52.220;5.172;2023-12-14T03:17:35;101385.88;;;6.28;85.42
79791;BME280;69278;52.220;5.172;2023-12-14T03:20:02;101407.44;;;6.46;85.98
79791;BME280;69278;52.220;5.172;2023-12-14T03:22:31;101387.72;;;6.40;85.54
79791;BME280;69278;52.220;5.172;2023-12-14T03:24:59;101410.31;;;6.55;86.19
79791;BME280;69278;52.220;5.172;2023-12-14T03:27:25;101413.94;;;6.53;85.30
79791;BME280;69278;52.220;5.172;2023-12-14T03:29:52;101404.53;;;6.50;85.51
79791;BME280;69278;52.220;5.172;2023-12-14T03:32:18;101392.09;;;6.40;85.67
79791;BME280;69278;52.220;5.172;2023-12-14T03:34:44;101405.09;;;6.41;85.56
79791;BME280;69278;52.220;5.172;2023-12-14T03:37:11;101395.66;;;6.39;85.88
79791;BME280;69278;52.220;5.172;2023-12-14T03:39:37;101408.16;;;6.48;85.64
79791;BME280;69278;52.220;5.172;2023-12-14T03:42:04;101421.97;;;6.50;85.81
79791;BME280;69278;52.220;5.172;2023-12-14T03:44:30;101418.53;;;6.49;85.71
79791;BME280;69278;52.220;5.172;2023-12-14T03:46:57;101418.75;;;6.46;85.84
79791;BME280;69278;52.220;5.172;2023-12-14T03:49:24;101417.16;;;6.44;85.21
79791;BME280;69278;52.220;5.172;2023-12-14T03:51:51;101422.28;;;6.45;85.56
79791;BME280;69278;52.220;5.172;2023-12-14T03:54:17;101427.31;;;6.48;85.82
79791;BME280;69278;52.220;5.172;2023-12-14T03:56:43;101442.19;;;6.48;85.42
79791;BME280;69278;52.220;5.172;2023-12-14T03:59:10;101415.84;;;6.37;85.06
79791;BME280;69278;52.220;5.172;2023-12-14T04:01:36;101429.38;;;6.43;85.29
79791;BME280;69278;52.220;5.172;2023-12-14T04:04:06;101412.03;;;6.28;84.91
79791;BME280;69278;52.220;5.172;2023-12-14T04:06:32;101418.84;;;6.31;84.65
79791;BME280;69278;52.220;5.172;2023-12-14T04:08:59;101427.25;;;6.36;85.11
79791;BME280;69278;52.220;5.172;2023-12-14T04:11:25;101447.31;;;6.49;84.59
79791;BME280;69278;52.220;5.172;2023-12-14T04:13:52;101462.25;;;6.47;84.60
79791;BME280;69278;52.220;5.172;2023-12-14T04:16:20;101464.03;;;6.47;84.46
79791;BME280;69278;52.220;5.172;2023-12-14T04:18:51;101464.25;;;6.44;84.36
79791;BME280;69278;52.220;5.172;2023-12-14T04:21:17;101439.03;;;6.29;83.99
79791;BME280;69278;52.220;5.172;2023-12-14T04:23:44;101477.78;;;6.50;83.96
79791;BME280;69278;52.220;5.172;2023-12-14T04:26:12;101490.13;;;6.48;83.78
79791;BME280;69278;52.220;5.172;2023-12-14T04:28:40;101476.47;;;6.43;84.11
79791;BME280;69278;52.220;5.172;2023-12-14T04:31:07;101472.00;;;6.31;83.58
79791;BME280;69278;52.220;5.172;2023-12-14T04:33:33;101477.03;;;6.34;83.75
79791;BME280;69278;52.220;5.172;2023-12-14T04:36:00;101490.47;;;6.42;83.24
79791;BME280;69278;52.220;5.172;2023-12-14T04:38:26;101482.00;;;6.39;83.51
79791;BME280;69278;52.220;5.172;2023-12-14T04:40:53;101501.78;;;6.43;83.23
79791;BME280;69278;52.220;5.172;2023-12-14T04:43:19;101510.56;;;6.42;83.56
79791;BME280;69278;52.220;5.172;2023-12-14T04:45:46;101510.38;;;6.45;83.32
79791;BME280;69278;52.220;5.172;2023-12-14T04:48:13;101520.66;;;6.48;83.56
79791;BME280;69278;52.220;5.172;2023-12-14T04:50:39;101513.00;;;6.45;83.79
79791;BME280;69278;52.220;5.172;2023-12-14T04:53:06;101500.66;;;6.33;83.02
79791;BME280;69278;52.220;5.172;2023-12-14T04:55:32;101534.03;;;6.43;83.17
79791;BME280;69278;52.220;5.172;2023-12-14T04:57:59;101544.38;;;6.45;82.88
79791;BME280;69278;52.220;5.172;2023-12-14T05:00:25;101554.97;;;6.43;82.73
79791;BME280;69278;52.220;5.172;2023-12-14T05:02:52;101548.50;;;6.35;82.91
79791;BME280;69278;52.220;5.172;2023-12-14T05:05:18;101565.31;;;6.45;82.81
79791;BME280;69278;52.220;5.172;2023-12-14T05:07:45;101575.72;;;6.46;82.95
79791;BME280;69278;52.220;5.172;2023-12-14T05:10:11;101572.31;;;6.44;82.59
79791;BME280;69278;52.220;5.172;2023-12-14T05:12:38;101574.19;;;6.42;82.57
79791;BME280;69278;52.220;5.172;2023-12-14T05:15:05;101592.91;;;6.50;82.74
79791;BME280;69278;52.220;5.172;2023-12-14T05:17:32;101591.31;;;6.48;82.57
79791;BME280;69278;52.220;5.172;2023-12-14T05:19:58;101597.28;;;6.50;82.14
79791;BME280;69278;52.220;5.172;2023-12-14T05:22:25;101589.16;;;6.40;81.65
79791;BME280;69278;52.220;5.172;2023-12-14T05:24:52;101612.41;;;6.45;81.63
79791;BME280;69278;52.220;5.172;2023-12-14T05:27:18;101603.41;;;6.35;81.74
79791;BME280;69278;52.220;5.172;2023-12-14T05:29:44;101572.97;;;6.20;81.92
79791;BME280;69278;52.220;5.172;2023-12-14T05:32:11;101622.31;;;6.40;81.61
79791;BME280;69278;52.220;5.172;2023-12-14T05:34:37;101602.66;;;6.19;80.89
79791;BME280;69278;52.220;5.172;2023-12-14T05:37:04;101612.56;;;6.28;81.00
79791;BME280;69278;52.220;5.172;2023-12-14T05:39:30;101604.50;;;6.17;81.20
79791;BME280;69278;52.220;5.172;2023-12-14T05:41:57;101623.88;;;6.28;81.49
79791;BME280;69278;52.220;5.172;2023-12-14T05:44:23;101628.09;;;6.31;81.32
79791;BME280;69278;52.220;5.172;2023-12-14T05:46:51;101609.91;;;6.14;81.35
79791;BME280;69278;52.220;5.172;2023-12-14T05:49:17;101637.97;;;6.26;81.17
79791;BME280;69278;52.220;5.172;2023-12-14T05:51:44;101654.91;;;6.34;81.18
79791;BME280;69278;52.220;5.172;2023-12-14T05:54:10;101647.31;;;6.30;81.24
79791;BME280;69278;52.220;5.172;2023-12-14T05:56:37;101623.00;;;6.14;80.78
79791;BME280;69278;52.220;5.172;2023-12-14T05:59:05;101627.75;;;6.07;80.54
79791;BME280;69278;52.220;5.172;2023-12-14T06:01:32;101645.94;;;6.09;81.09
79791;BME280;69278;52.220;5.172;2023-12-14T06:03:58;101648.72;;;6.06;81.26
79791;BME280;69278;52.220;5.172;2023-12-14T06:06:25;101656.66;;;6.04;80.59
79791;BME280;69278;52.220;5.172;2023-12-14T06:08:51;101662.75;;;6.05;80.91
79791;BME280;69278;52.220;5.172;2023-12-14T06:11:18;101655.50;;;5.94;80.71
79791;BME280;69278;52.220;5.172;2023-12-14T06:13:46;101656.44;;;5.93;81.12
79791;BME280;69278;52.220;5.172;2023-12-14T06:16:12;101671.34;;;6.07;81.28
79791;BME280;69278;52.220;5.172;2023-12-14T06:18:40;101667.28;;;6.01;80.85
79791;BME280;69278;52.220;5.172;2023-12-14T06:21:11;101678.53;;;6.03;80.97
79791;BME280;69278;52.220;5.172;2023-12-14T06:23:37;101694.13;;;6.05;80.97
79791;BME280;69278;52.220;5.172;2023-12-14T06:26:04;101682.41;;;5.96;80.65
79791;BME280;69278;52.220;5.172;2023-12-14T06:28:31;101703.09;;;6.00;80.97
79791;BME280;69278;52.220;5.172;2023-12-14T06:30:57;101696.13;;;5.84;80.48
79791;BME280;69278;52.220;5.172;2023-12-14T06:33:24;101707.88;;;5.92;80.70
79791;BME280;69278;52.220;5.172;2023-12-14T06:35:50;101718.19;;;5.95;81.06
79791;BME280;69278;52.220;5.172;2023-12-14T06:38:17;101714.44;;;5.99;81.14
79791;BME280;69278;52.220;5.172;2023-12-14T06:40:44;101700.31;;;5.88;80.82
79791;BME280;69278;52.220;5.172;2023-12-14T06:43:10;101718.66;;;6.02;80.25
79791;BME280;69278;52.220;5.172;2023-12-14T06:45:37;101732.75;;;5.99;80.09
79791;BME280;69278;52.220;5.172;2023-12-14T06:48:04;101737.22;;;5.97;80.55
79791;BME280;69278;52.220;5.172;2023-12-14T06:50:31;101697.25;;;5.64;80.16
79791;BME280;69278;52.220;5.172;2023-12-14T06:52:57;101758.41;;;5.93;79.73
79791;BME280;69278;52.220;5.172;2023-12-14T06:55:24;101771.63;;;5.90;79.68
79791;BME280;69278;52.220;5.172;2023-12-14T06:57:51;101765.81;;;5.85;80.45
79791;BME280;69278;52.220;5.172;2023-12-14T07:00:18;101779.31;;;5.93;79.80
79791;BME280;69278;52.220;5.172;2023-12-14T07:02:44;101770.88;;;5.88;79.71
79791;BME280;69278;52.220;5.172;2023-12-14T07:05:11;101762.47;;;5.81;79.40
79791;BME280;69278;52.220;5.172;2023-12-14T07:07:37;101782.94;;;5.90;79.07
79791;BME280;69278;52.220;5.172;2023-12-14T07:10:04;101767.56;;;5.84;78.87
79791;BME280;69278;52.220;5.172;2023-12-14T07:12:31;101775.34;;;5.86;79.43
79791;BME280;69278;52.220;5.172;2023-12-14T07:14:58;101785.19;;;5.96;79.29
79791;BME280;69278;52.220;5.172;2023-12-14T07:17:24;101773.50;;;5.88;79.38
79791;BME280;69278;52.220;5.172;2023-12-14T07:19:51;101797.19;;;6.00;79.37
79791;BME280;69278;52.220;5.172;2023-12-14T07:22:18;101801.22;;;6.06;79.21
79791;BME280;69278;52.220;5.172;2023-12-14T07:24:44;101806.38;;;6.08;79.08
79791;BME280;69278;52.220;5.172;2023-12-14T07:27:21;101798.72;;;6.05;79.35
79791;BME280;69278;52.220;5.172;2023-12-14T07:29:48;101811.38;;;6.12;79.50
79791;BME280;69278;52.220;5.172;2023-12-14T07:32:15;101800.06;;;6.12;79.28
79791;BME280;69278;52.220;5.172;2023-12-14T07:34:41;101802.50;;;6.15;78.11
79791;BME280;69278;52.220;5.172;2023-12-14T07:37:08;101806.19;;;6.87;85.79
79791;BME280;69278;52.220;5.172;2023-12-14T07:39:34;101763.25;;;7.48;86.55
79791;BME280;69278;52.220;5.172;2023-12-14T07:42:01;101801.81;;;8.29;85.16
79791;BME280;69278;52.220;5.172;2023-12-14T07:44:27;101816.81;;;8.27;78.86
79791;BME280;69278;52.220;5.172;2023-12-14T07:46:59;101813.88;;;7.76;75.77
79791;BME280;69278;52.220;5.172;2023-12-14T07:49:26;101824.44;;;7.47;76.86
79791;BME280;69278;52.220;5.172;2023-12-14T07:51:53;101836.09;;;7.27;77.51
79791;BME280;69278;52.220;5.172;2023-12-14T07:54:20;101833.34;;;7.00;76.34
79791;BME280;69278;52.220;5.172;2023-12-14T07:56:46;101825.50;;;6.71;75.61
79791;BME280;69278;52.220;5.172;2023-12-14T07:59:13;101835.44;;;6.64;76.35
79791;BME280;69278;52.220;5.172;2023-12-14T08:01:39;101844.41;;;6.60;76.27
79791;BME280;69278;52.220;5.172;2023-12-14T08:04:06;101843.16;;;6.51;76.39
79791;BME280;69278;52.220;5.172;2023-12-14T08:06:32;101843.34;;;6.48;77.04
79791;BME280;69278;52.220;5.172;2023-12-14T08:08:59;101859.09;;;6.47;76.84
79791;BME280;69278;52.220;5.172;2023-12-14T08:11:27;101862.91;;;6.41;76.75
79791;BME280;69278;52.220;5.172;2023-12-14T08:13:53;101857.84;;;6.38;77.23
79791;BME280;69278;52.220;5.172;2023-12-14T08:16:20;101853.19;;;6.28;76.67
79791;BME280;69278;52.220;5.172;2023-12-14T08:18:46;101846.28;;;6.27;77.55
79791;BME280;69278;52.220;5.172;2023-12-14T08:21:15;101856.09;;;6.39;77.22
79791;BME280;69278;52.220;5.172;2023-12-14T08:23:42;101842.25;;;6.37;77.31
79791;BME280;69278;52.220;5.172;2023-12-14T08:26:09;101860.31;;;6.41;77.26
79791;BME280;69278;52.220;5.172;2023-12-14T08:28:38;101856.84;;;6.41;77.37
79791;BME280;69278;52.220;5.172;2023-12-14T08:31:05;101849.56;;;6.30;77.38
79791;BME280;69278;52.220;5.172;2023-12-14T08:33:31;101876.06;;;6.40;77.41
79791;BME280;69278;52.220;5.172;2023-12-14T08:35:58;101876.75;;;6.43;77.59
79791;BME280;69278;52.220;5.172;2023-12-14T08:38:24;101893.22;;;6.45;77.50
79791;BME280;69278;52.220;5.172;2023-12-14T08:40:51;101900.13;;;6.46;78.05
79791;BME280;69278;52.220;5.172;2023-12-14T08:43:17;101902.41;;;7.13;80.26
79791;BME280;69278;52.220;5.172;2023-12-14T08:45:44;101903.47;;;7.69;76.84
79791;BME280;69278;52.220;5.172;2023-12-14T08:48:10;101871.66;;;7.75;74.82
79791;BME280;69278;52.220;5.172;2023-12-14T08:50:37;101907.63;;;8.29;74.38
79791;BME280;69278;52.220;5.172;2023-12-14T08:53:04;101911.81;;;8.46;73.38
79791;BME280;69278;52.220;5.172;2023-12-14T08:55:32;101877.63;;;8.47;73.03
79791;BME280;69278;52.220;5.172;2023-12-14T08:57:58;101891.13;;;8.68;71.72
79791;BME280;69278;52.220;5.172;2023-12-14T09:00:25;101915.50;;;8.97;71.68
79791;BME280;69278;52.220;5.172;2023-12-14T09:02:51;101894.41;;;8.98;71.32
79791;BME280;69278;52.220;5.172;2023-12-14T09:05:18;101911.34;;;9.07;68.65
79791;BME280;69278;52.220;5.172;2023-12-14T09:07:47;101881.88;;;8.89;68.72
79791;BME280;69278;52.220;5.172;2023-12-14T09:10:14;101905.00;;;8.97;67.82
79791;BME280;69278;52.220;5.172;2023-12-14T09:12:40;101932.72;;;9.15;67.95
79791;BME280;69278;52.220;5.172;2023-12-14T09:15:07;101934.38;;;9.16;68.11
79791;BME280;69278;52.220;5.172;2023-12-14T09:17:33;101937.91;;;9.29;67.31
79791;BME280;69278;52.220;5.172;2023-12-14T09:20:03;101930.75;;;9.31;67.91
79791;BME280;69278;52.220;5.172;2023-12-14T09:22:33;101935.47;;;9.26;67.14
79791;BME280;69278;52.220;5.172;2023-12-14T09:25:00;101942.34;;;9.41;66.85
79791;BME280;69278;52.220;5.172;2023-12-14T09:27:27;101943.41;;;9.39;67.13
79791;BME280;69278;52.220;5.172;2023-12-14T09:29:53;101950.25;;;9.41;66.52
79791;BME280;69278;52.220;5.172;2023-12-14T09:32:20;101954.97;;;9.36;66.30
79791;BME280;69278;52.220;5.172;2023-12-14T09:34:46;101947.50;;;9.30;66.56
79791;BME280;69278;52.220;5.172;2023-12-14T09:37:13;101950.94;;;9.30;67.07
79791;BME280;69278;52.220;5.172;2023-12-14T09:39:40;101969.03;;;9.35;66.02
79791;BME280;69278;52.220;5.172;2023-12-14T09:42:07;101960.16;;;9.23;65.75
79791;BME280;69278;52.220;5.172;2023-12-14T09:44:35;101982.41;;;9.32;66.27
79791;BME280;69278;52.220;5.172;2023-12-14T09:47:03;101957.31;;;9.14;65.92
79791;BME280;69278;52.220;5.172;2023-12-14T09:49:30;101983.88;;;9.36;66.26
79791;BME280;69278;52.220;5.172;2023-12-14T09:51:57;101992.31;;;9.41;66.03
79791;BME280;69278;52.220;5.172;2023-12-14T09:54:26;101992.31;;;9.41;66.82
79791;BME280;69278;52.220;5.172;2023-12-14T09:56:53;101977.53;;;9.26;65.80
79791;BME280;69278;52.220;5.172;2023-12-14T09:59:20;101982.94;;;9.37;66.97
79791;BME280;69278;52.220;5.172;2023-12-14T10:01:48;101987.50;;;9.21;65.13
79791;BME280;69278;52.220;5.172;2023-12-14T10:04:17;102014.22;;;9.01;66.83
79791;BME280;69278;52.220;5.172;2023-12-14T10:06:45;101958.03;;;8.48;67.25
79791;BME280;69278;52.220;5.172;2023-12-14T10:09:12;102024.59;;;8.61;67.46
79791;BME280;69278;52.220;5.172;2023-12-14T10:11:44;102016.19;;;8.28;67.70
79791;BME280;69278;52.220;5.172;2023-12-14T10:14:22;102031.03;;;8.14;68.62
79791;BME280;69278;52.220;5.172;2023-12-14T10:16:49;102018.34;;;7.92;69.17
79791;BME280;69278;52.220;5.172;2023-12-14T10:19:19;102032.22;;;7.94;69.52
79791;BME280;69278;52.220;5.172;2023-12-14T10:21:47;102033.13;;;7.93;70.01
79791;BME280;69278;52.220;5.172;2023-12-14T10:24:14;102011.38;;;7.77;69.75
79791;BME280;69278;52.220;5.172;2023-12-14T10:26:46;102029.34;;;7.83;70.40
79791;BME280;69278;52.220;5.172;2023-12-14T10:29:12;102027.84;;;7.79;71.64
79791;BME280;69278;52.220;5.172;2023-12-14T10:31:40;102027.16;;;8.05;71.27
79791;BME280;69278;52.220;5.172;2023-12-14T10:34:06;102041.66;;;8.26;71.12
79791;BME280;69278;52.220;5.172;2023-12-14T10:36:34;102038.09;;;8.27;70.42
79791;BME280;69278;52.220;5.172;2023-12-14T10:39:01;102012.16;;;8.07;69.01
79791;BME280;69278;52.220;5.172;2023-12-14T10:41:30;102013.34;;;7.87;69.13
79791;BME280;69278;52.220;5.172;2023-12-14T10:43:59;102041.69;;;7.96;69.97
79791;BME280;69278;52.220;5.172;2023-12-14T10:46:48;102039.09;;;7.81;70.44
79791;BME280;69278;52.220;5.172;2023-12-14T10:49:15;102060.66;;;7.86;71.05
79791;BME280;69278;52.220;5.172;2023-12-14T10:51:42;102061.25;;;7.75;69.73
79791;BME280;69278;52.220;5.172;2023-12-14T10:54:11;102054.19;;;7.62;70.65
79791;BME280;69278;52.220;5.172;2023-12-14T10:56:38;102055.63;;;7.67;71.10
79791;BME280;69278;52.220;5.172;2023-12-14T10:59:06;102058.31;;;7.66;71.43
79791;BME280;69278;52.220;5.172;2023-12-14T11:01:33;102072.19;;;7.68;71.94
79791;BME280;69278;52.220;5.172;2023-12-14T11:04:01;102059.00;;;7.69;72.62
79791;BME280;69278;52.220;5.172;2023-12-14T11:06:31;102057.25;;;7.70;71.70
79791;BME280;69278;52.220;5.172;2023-12-14T11:09:00;102069.56;;;7.68;71.35
79791;BME280;69278;52.220;5.172;2023-12-14T11:12:07;102067.13;;;7.65;71.21
79791;BME280;69278;52.220;5.172;2023-12-14T11:14:35;102053.97;;;7.51;71.27
79791;BME280;69278;52.220;5.172;2023-12-14T11:17:06;102076.09;;;7.61;71.83
79791;BME280;69278;52.220;5.172;2023-12-14T11:19:33;102069.09;;;7.61;71.50
79791;BME280;69278;52.220;5.172;2023-12-14T11:22:13;102075.16;;;7.62;71.87
79791;BME280;69278;52.220;5.172;2023-12-14T11:24:42;102057.25;;;7.54;71.96
79791;BME280;69278;52.220;5.172;2023-12-14T11:27:11;102035.47;;;7.38;72.28
79791;BME280;69278;52.220;5.172;2023-12-14T11:29:38;102082.28;;;7.60;72.20
79791;BME280;69278;52.220;5.172;2023-12-14T11:32:06;102055.31;;;7.42;72.01
79791;BME280;69278;52.220;5.172;2023-12-14T11:34:33;102066.50;;;7.46;71.12
79791;BME280;69278;52.220;5.172;2023-12-14T11:37:00;102072.13;;;7.54;72.06
79791;BME280;69278;52.220;5.172;2023-12-14T11:39:30;101998.41;;;7.14;72.21
79791;BME280;69278;52.220;5.172;2023-12-14T11:42:04;102088.19;;;7.63;71.51
79791;BME280;69278;52.220;5.172;2023-12-14T11:44:33;102088.97;;;7.65;71.94
79791;BME280;69278;52.220;5.172;2023-12-14T11:47:00;102078.72;;;7.61;72.40
79791;BME280;69278;52.220;5.172;2023-12-14T11:49:27;102091.06;;;7.74;72.59
79791;BME280;69278;52.220;5.172;2023-12-14T11:51:54;102067.72;;;7.70;73.05
79791;BME280;69278;52.220;5.172;2023-12-14T11:54:21;102093.25;;;7.82;72.02
79791;BME280;69278;52.220;5.172;2023-12-14T11:56:48;102091.53;;;7.81;71.99
79791;BME280;69278;52.220;5.172;2023-12-14T11:59:16;102100.16;;;7.83;72.17
79791;BME280;69278;52.220;5.172;2023-12-14T12:02:01;102100.44;;;7.78;71.71
79791;BME280;69278;52.220;5.172;2023-12-14T12:04:28;102086.06;;;7.70;72.21
79791;BME280;69278;52.220;5.172;2023-12-14T12:07:05;102107.97;;;7.84;71.79
79791;BME280;69278;52.220;5.172;2023-12-14T12:09:38;102096.19;;;7.76;72.01
79791;BME280;69278;52.220;5.172;2023-12-14T12:12:09;102118.50;;;7.83;71.60
79791;BME280;69278;52.220;5.172;2023-12-14T12:14:37;102096.47;;;7.71;72.16
79791;BME280;69278;52.220;5.172;2023-12-14T12:17:04;102079.50;;;7.63;72.36
79791;BME280;69278;52.220;5.172;2023-12-14T12:19:35;102098.78;;;7.62;72.06
79791;BME280;69278;52.220;5.172;2023-12-14T12:22:03;102098.88;;;7.60;73.14
79791;BME280;69278;52.220;5.172;2023-12-14T12:24:30;102118.88;;;7.77;72.72
79791;BME280;69278;52.220;5.172;2023-12-14T12:26:59;102124.88;;;7.79;73.04
79791;BME280;69278;52.220;5.172;2023-12-14T12:29:26;102121.66;;;7.74;72.75
79791;BME280;69278;52.220;5.172;2023-12-14T12:31:52;102129.53;;;7.74;73.04
79791;BME280;69278;52.220;5.172;2023-12-14T12:34:19;102132.91;;;7.76;73.47
79791;BME280;69278;52.220;5.172;2023-12-14T12:36:45;102116.53;;;7.72;72.80
79791;BME280;69278;52.220;5.172;2023-12-14T12:39:13;102116.25;;;7.77;73.32
79791;BME280;69278;52.220;5.172;2023-12-14T12:41:39;102112.19;;;7.71;73.26
79791;BME280;69278;52.220;5.172;2023-12-14T12:44:06;102116.53;;;7.72;72.73
79791;BME280;69278;52.220;5.172;2023-12-14T12:46:36;102125.41;;;7.70;73.47
79791;BME280;69278;52.220;5.172;2023-12-14T12:49:06;102112.56;;;7.65;73.68
79791;BME280;69278;52.220;5.172;2023-12-14T12:51:33;102116.59;;;7.71;73.40
79791;BME280;69278;52.220;5.172;2023-12-14T12:54:00;102109.94;;;7.65;73.63
79791;BME280;69278;52.220;5.172;2023-12-14T12:56:38;102106.25;;;7.68;73.69
79791;BME280;69278;52.220;5.172;2023-12-14T12:59:04;102114.91;;;7.70;73.66
79791;BME280;69278;52.220;5.172;2023-12-14T13:01:35;102122.78;;;7.70;74.28